createdAt,value
2022-12-25T00:00:24.189Z,99899.97
2022-12-25T00:03:25.812Z,99906.69
2022-12-25T00:06:27.858Z,99899.00
2022-12-25T00:09:30.049Z,99902.31
2022-12-25T00:12:31.560Z,99898.47
2022-12-25T00:15:33.017Z,99892.34
2022-12-25T00:18:34.822Z,99896.59
2022-12-25T00:21:36.361Z,99889.00
2022-12-25T00:24:37.894Z,99881.63
2022-12-25T00:27:39.371Z,99895.84
2022-12-25T00:30:41.070Z,99895.31
2022-12-25T00:33:44.804Z,99891.50
2022-12-25T00:36:46.357Z,99891.34
2022-12-25T00:39:49.687Z,99897.34
2022-12-25T00:42:51.416Z,99894.59
2022-12-25T00:46:01.596Z,99898.25
2022-12-25T00:49:03.740Z,99894.00
2022-12-25T00:52:05.286Z,99898.91
2022-12-25T00:55:07.216Z,99889.19
2022-12-25T00:58:08.719Z,99900.97
2022-12-25T01:01:11.666Z,99903.91
2022-12-25T01:04:13.523Z,99907.72
2022-12-25T01:07:16.915Z,99900.94
2022-12-25T01:10:24.244Z,99887.84
2022-12-25T01:13:26.611Z,99899.28
2022-12-25T01:16:28.704Z,99907.81
2022-12-25T01:19:30.391Z,99899.59
2022-12-25T01:22:31.838Z,99907.44
2022-12-25T01:25:34.988Z,99904.91
2022-12-25T01:28:37.597Z,99899.78
2022-12-25T01:31:39.215Z,99887.25
2022-12-25T01:34:40.708Z,99895.22
2022-12-25T01:37:42.149Z,99898.53
2022-12-25T01:40:43.672Z,99908.00
2022-12-25T01:44:06.734Z,99902.75
2022-12-25T01:47:08.242Z,99906.84
2022-12-25T01:50:09.833Z,99898.78
2022-12-25T01:53:11.998Z,99887.25
2022-12-25T01:56:13.526Z,99872.38
2022-12-25T01:59:19.469Z,99859.66
2022-12-25T02:02:21.234Z,99867.88
2022-12-25T02:05:27.214Z,99871.84
2022-12-25T02:08:28.733Z,99869.53
2022-12-25T02:11:48.571Z,99868.66
2022-12-25T02:14:52.403Z,99878.84
2022-12-25T02:18:02.768Z,99874.41
2022-12-25T02:21:31.894Z,99870.41
2022-12-25T02:24:40.539Z,99859.31
2022-12-25T02:28:08.595Z,99875.91
2022-12-25T02:31:30.424Z,99862.28
2022-12-25T02:34:38.040Z,99855.22
2022-12-25T02:37:54.655Z,99862.50
2022-12-25T02:41:01.618Z,99854.06
2022-12-25T02:44:28.782Z,99852.41
2022-12-25T02:47:54.779Z,99871.47
2022-12-25T02:51:15.644Z,99867.72
2022-12-25T02:54:42.207Z,99853.81
2022-12-25T02:58:07.076Z,99843.28
2022-12-25T03:01:32.065Z,99841.72
2022-12-25T03:04:52.769Z,99840.56
2022-12-25T03:07:56.230Z,99836.88
2022-12-25T03:11:21.921Z,99839.03
2022-12-25T03:14:42.493Z,99841.56
2022-12-25T03:17:44.095Z,99835.75
2022-12-25T03:21:04.303Z,99836.56
2022-12-25T03:24:24.754Z,99838.50
2022-12-25T03:27:29.507Z,99830.38
2022-12-25T03:31:05.145Z,99824.09
2022-12-25T03:35:01.674Z,99811.66
2022-12-25T03:38:51.701Z,99816.31
2022-12-25T03:42:17.362Z,99801.78
2022-12-25T03:46:12.772Z,99797.16
2022-12-25T03:49:49.353Z,99805.03
2022-12-25T03:53:13.647Z,99780.31
2022-12-25T03:56:35.907Z,99786.53
2022-12-25T03:59:56.220Z,99785.41
2022-12-25T04:03:16.338Z,99784.56
2022-12-25T04:06:36.405Z,99783.47
2022-12-25T04:09:56.343Z,99785.41
2022-12-25T04:13:16.205Z,99783.16
2022-12-25T04:16:35.956Z,99788.50
2022-12-25T04:19:55.786Z,99785.69
2022-12-25T04:23:15.686Z,99770.00
2022-12-25T04:26:35.597Z,99774.19
2022-12-25T04:29:55.351Z,99783.47
2022-12-25T04:33:17.157Z,99779.72
2022-12-25T04:36:19.370Z,99783.06
2022-12-25T04:39:20.861Z,99778.22
2022-12-25T04:42:22.321Z,99777.25
2022-12-25T04:45:23.761Z,99789.38
2022-12-25T04:48:26.900Z,99780.03
2022-12-25T04:51:28.375Z,99781.28
2022-12-25T04:54:29.785Z,99775.41
2022-12-25T04:57:31.448Z,99782.19
2022-12-25T05:00:32.956Z,99769.22
2022-12-25T05:03:35.163Z,99770.84
2022-12-25T05:06:36.890Z,99765.31
2022-12-25T05:09:41.648Z,99764.03
2022-12-25T05:12:43.486Z,99761.19
2022-12-25T05:15:45.208Z,99761.53
2022-12-25T05:18:49.815Z,99757.63
2022-12-25T05:21:51.278Z,99744.44
2022-12-25T05:24:52.783Z,99744.34
2022-12-25T05:27:54.339Z,99741.13
2022-12-25T05:30:58.635Z,99740.91
2022-12-25T05:34:00.354Z,99736.00
2022-12-25T05:37:01.830Z,99724.47
2022-12-25T05:40:04.454Z,99720.16
2022-12-25T05:43:06.030Z,99708.59
2022-12-25T05:46:09.397Z,99708.28
2022-12-25T05:49:10.927Z,99716.34
2022-12-25T05:52:12.370Z,99719.91
2022-12-25T05:55:13.849Z,99713.66
2022-12-25T05:58:15.279Z,99718.44
2022-12-25T06:01:20.547Z,99698.22
2022-12-25T06:04:22.065Z,99708.41
2022-12-25T06:07:23.513Z,99707.22
2022-12-25T06:10:25.037Z,99712.81
2022-12-25T06:13:26.434Z,99711.75
2022-12-25T06:16:30.552Z,99717.13
2022-12-25T06:19:37.450Z,99705.91
2022-12-25T06:22:38.917Z,99709.22
2022-12-25T06:25:40.741Z,99707.94
2022-12-25T06:28:42.465Z,99704.00
2022-12-25T06:31:44.080Z,99707.16
2022-12-25T06:34:45.921Z,99693.47
2022-12-25T06:37:47.388Z,99696.22
2022-12-25T06:40:48.831Z,99716.34
2022-12-25T06:43:56.305Z,99727.06
2022-12-25T06:46:57.784Z,99721.50
2022-12-25T06:49:59.323Z,99728.81
2022-12-25T06:53:00.769Z,99729.34
2022-12-25T06:56:04.000Z,99727.19
2022-12-25T06:59:08.477Z,99733.69
2022-12-25T07:02:18.665Z,99731.56
2022-12-25T07:05:20.269Z,99720.97
2022-12-25T07:08:21.654Z,99727.41
2022-12-25T07:11:23.856Z,99719.34
2022-12-25T07:14:25.346Z,99719.00
2022-12-25T07:17:26.757Z,99708.88
2022-12-25T07:20:29.901Z,99716.50
2022-12-25T07:23:31.568Z,99710.13
2022-12-25T07:26:33.139Z,99706.31
2022-12-25T07:29:35.060Z,99706.00
2022-12-25T07:32:36.533Z,99695.09
2022-12-25T07:35:38.623Z,99694.94
2022-12-25T07:38:41.697Z,99704.91
2022-12-25T07:41:43.996Z,99714.16
2022-12-25T07:44:48.989Z,99716.84
2022-12-25T07:47:52.838Z,99724.34
2022-12-25T07:51:01.014Z,99730.16
2022-12-25T07:54:02.720Z,99713.25
2022-12-25T07:57:04.210Z,99710.63
2022-12-25T08:00:07.039Z,99707.94
2022-12-25T08:03:15.865Z,99717.31
2022-12-25T08:06:18.197Z,99736.56
2022-12-25T08:09:19.695Z,99747.94
2022-12-25T08:12:21.161Z,99739.06
2022-12-25T08:15:22.587Z,99740.28
2022-12-25T08:18:29.525Z,99738.44
2022-12-25T08:21:31.569Z,99720.34
2022-12-25T08:24:33.091Z,99703.97
2022-12-25T08:27:34.843Z,99699.50
2022-12-25T08:30:39.050Z,99688.09
2022-12-25T08:33:40.727Z,99695.97
2022-12-25T08:36:42.237Z,99702.13
2022-12-25T08:39:43.723Z,99705.72
2022-12-25T08:42:45.123Z,99705.34
2022-12-25T08:45:47.538Z,99698.16
2022-12-25T08:48:49.511Z,99702.72
2022-12-25T08:51:51.032Z,99708.59
2022-12-25T08:54:52.486Z,99710.25
2022-12-25T08:57:54.289Z,99715.28
2022-12-25T09:00:56.499Z,99726.19
2022-12-25T09:03:58.017Z,99732.69
2022-12-25T09:06:59.482Z,99744.09
2022-12-25T09:10:00.891Z,99743.44
2022-12-25T09:13:02.451Z,99746.91
2022-12-25T09:16:16.372Z,99745.31
2022-12-25T09:19:17.985Z,99744.69
2022-12-25T09:22:19.574Z,99747.69
2022-12-25T09:25:21.436Z,99739.03
2022-12-25T09:28:22.985Z,99753.53
2022-12-25T09:31:24.560Z,99752.56
2022-12-25T09:34:26.217Z,99748.66
2022-12-25T09:37:28.571Z,99730.53
2022-12-25T09:40:30.872Z,99728.34
2022-12-25T09:43:38.674Z,99724.41
2022-12-25T09:47:03.918Z,99710.72
2022-12-25T09:50:11.148Z,99702.97
2022-12-25T09:53:24.621Z,99689.94
2022-12-25T09:56:26.514Z,99682.09
2022-12-25T09:59:28.037Z,99669.00
2022-12-25T10:02:50.702Z,99654.75
2022-12-25T10:05:52.205Z,99664.13
2022-12-25T10:09:21.485Z,99656.25
2022-12-25T10:12:47.034Z,99654.56
2022-12-25T10:16:09.816Z,99650.66
2022-12-25T10:19:45.969Z,99656.25
2022-12-25T10:23:00.115Z,99662.31
2022-12-25T10:26:01.855Z,99660.34
2022-12-25T10:29:16.377Z,99655.25
2022-12-25T10:32:17.930Z,99659.84
2022-12-25T10:35:23.043Z,99653.00
2022-12-25T10:38:24.590Z,99655.59
2022-12-25T10:41:50.634Z,99653.44
2022-12-25T10:45:00.997Z,99651.19
2022-12-25T10:48:07.361Z,99653.94
2022-12-25T10:51:09.618Z,99660.81
2022-12-25T10:54:22.258Z,99666.72
2022-12-25T10:57:25.685Z,99670.97
2022-12-25T11:00:32.463Z,99662.81
2022-12-25T11:03:37.912Z,99643.94
2022-12-25T11:06:39.546Z,99645.28
2022-12-25T11:09:49.863Z,99638.53
2022-12-25T11:12:52.576Z,99633.59
2022-12-25T11:16:03.538Z,99621.31
2022-12-25T11:19:26.747Z,99609.66
2022-12-25T11:22:31.437Z,99610.66
2022-12-25T11:25:32.955Z,99591.88
2022-12-25T11:28:37.590Z,99583.69
2022-12-25T11:31:41.170Z,99575.50
2022-12-25T11:34:46.489Z,99567.34
2022-12-25T11:37:50.399Z,99557.78
2022-12-25T11:40:55.172Z,99555.44
2022-12-25T11:43:59.315Z,99560.91
2022-12-25T11:47:13.457Z,99558.31
2022-12-25T11:50:45.335Z,99555.59
2022-12-25T11:53:51.699Z,99554.34
2022-12-25T11:56:53.549Z,99549.97
2022-12-25T12:00:03.943Z,99563.63
2022-12-25T12:03:19.001Z,99560.41
2022-12-25T12:06:28.680Z,99556.94
2022-12-25T12:09:37.389Z,99552.06
2022-12-25T12:13:12.916Z,99548.84
2022-12-25T12:16:14.475Z,99558.75
2022-12-25T12:19:30.498Z,99554.91
2022-12-25T12:22:31.983Z,99547.41
2022-12-25T12:25:40.182Z,99544.28
2022-12-25T12:28:46.045Z,99544.63
2022-12-25T12:31:49.869Z,99545.56
2022-12-25T12:34:51.576Z,99529.31
2022-12-25T12:37:59.541Z,99520.59
2022-12-25T12:41:05.250Z,99520.38
2022-12-25T12:44:07.561Z,99515.09
2022-12-25T12:47:28.297Z,99516.00
2022-12-25T12:50:40.839Z,99518.22
2022-12-25T12:53:42.908Z,99522.22
2022-12-25T12:57:09.689Z,99534.03
2022-12-25T13:00:14.204Z,99526.81
2022-12-25T13:03:40.856Z,99527.13
2022-12-25T13:06:55.925Z,99517.88
2022-12-25T13:09:57.473Z,99537.03
2022-12-25T13:13:06.744Z,99542.75
2022-12-25T13:16:26.355Z,99531.97
2022-12-25T13:19:29.033Z,99539.72
2022-12-25T13:22:33.466Z,99542.75
2022-12-25T13:25:34.966Z,99544.97
2022-12-25T13:28:37.306Z,99536.00
2022-12-25T13:31:40.506Z,99516.63
2022-12-25T13:34:43.013Z,99515.06
2022-12-25T13:37:45.151Z,99517.09
2022-12-25T13:41:11.090Z,99529.03
2022-12-25T13:44:22.570Z,99526.13
2022-12-25T13:47:39.357Z,99524.16
2022-12-25T13:50:46.669Z,99533.88
2022-12-25T13:53:48.201Z,99536.69
2022-12-25T13:56:53.678Z,99531.44
2022-12-25T13:59:55.725Z,99520.56
2022-12-25T14:02:58.211Z,99513.97
2022-12-25T14:06:02.573Z,99526.00
2022-12-25T14:09:04.284Z,99528.78
2022-12-25T14:12:06.311Z,99523.00
2022-12-25T14:15:14.225Z,99541.22
2022-12-25T14:18:18.036Z,99533.53
2022-12-25T14:21:31.530Z,99524.84
2022-12-25T14:24:34.443Z,99528.78
2022-12-25T14:27:36.044Z,99537.84
2022-12-25T14:30:42.365Z,99532.59
2022-12-25T14:33:44.681Z,99532.25
2022-12-25T14:36:46.558Z,99528.47
2022-12-25T14:39:57.150Z,99537.38
2022-12-25T14:43:04.405Z,99539.38
2022-12-25T14:46:06.669Z,99531.47
2022-12-25T14:49:24.492Z,99519.16
2022-12-25T14:52:30.449Z,99527.22
2022-12-25T14:55:32.246Z,99532.47
2022-12-25T14:58:41.181Z,99545.25
2022-12-25T15:01:43.183Z,99541.97
2022-12-25T15:04:45.035Z,99546.28
2022-12-25T15:07:46.561Z,99552.34
2022-12-25T15:11:04.669Z,99552.31
2022-12-25T15:14:06.411Z,99554.28
2022-12-25T15:17:20.360Z,99560.72
2022-12-25T15:20:28.797Z,99567.28
2022-12-25T15:23:30.346Z,99576.81
2022-12-25T15:26:32.623Z,99575.03
2022-12-25T15:32:55.659Z,99576.69
2022-12-25T15:35:57.205Z,99575.69
2022-12-25T15:38:58.698Z,99583.22
2022-12-25T15:42:12.720Z,99580.44
2022-12-25T15:45:23.818Z,99581.13
2022-12-25T15:48:25.318Z,99587.19
2022-12-25T15:51:27.511Z,99590.59
2022-12-25T15:54:29.933Z,99599.47
2022-12-25T15:57:33.158Z,99599.69
2022-12-25T16:00:34.696Z,99593.06
2022-12-25T16:03:36.718Z,99589.88
2022-12-25T16:06:38.473Z,99600.06
2022-12-25T16:09:39.977Z,99607.69
2022-12-25T16:12:41.756Z,99606.59
2022-12-25T16:15:44.960Z,99614.22
2022-12-25T16:18:47.535Z,99611.28
2022-12-25T16:21:50.033Z,99618.47
2022-12-25T16:24:52.010Z,99622.00
2022-12-25T16:27:53.636Z,99616.41
2022-12-25T16:30:55.159Z,99609.53
2022-12-25T16:33:56.674Z,99606.88
2022-12-25T16:36:58.109Z,99603.44
2022-12-25T16:39:59.605Z,99601.16
2022-12-25T16:43:01.208Z,99602.28
2022-12-25T16:46:10.238Z,99597.72
2022-12-25T16:49:11.759Z,99598.69
2022-12-25T16:52:13.302Z,99601.50
2022-12-25T16:55:14.797Z,99606.44
2022-12-25T16:58:16.226Z,99609.53
2022-12-25T17:01:21.255Z,99606.38
2022-12-25T17:04:22.923Z,99612.63
2022-12-25T17:07:24.413Z,99616.34
2022-12-25T17:10:25.858Z,99629.13
2022-12-25T17:13:27.253Z,99633.97
2022-12-25T17:16:34.263Z,99640.41
2022-12-25T17:19:35.899Z,99636.50
2022-12-25T17:22:37.412Z,99643.53
2022-12-25T17:25:38.873Z,99629.97
2022-12-25T17:28:40.366Z,99636.38
2022-12-25T17:31:41.878Z,99633.81
2022-12-25T17:34:43.414Z,99631.47
2022-12-25T17:37:44.807Z,99631.47
2022-12-25T17:40:55.598Z,99627.06
2022-12-25T17:43:57.261Z,99638.25
2022-12-25T17:46:58.798Z,99644.56
2022-12-25T17:50:00.347Z,99645.06
2022-12-25T17:53:02.484Z,99653.09
2022-12-25T17:56:04.263Z,99652.94
2022-12-25T17:59:08.269Z,99660.28
2022-12-25T18:02:11.544Z,99661.50
2022-12-25T18:05:13.133Z,99668.44
2022-12-25T18:08:15.067Z,99674.72
2022-12-25T18:11:19.979Z,99669.28
2022-12-25T18:14:21.489Z,99678.50
2022-12-25T18:17:22.992Z,99680.41
2022-12-25T18:20:24.639Z,99678.69
2022-12-25T18:23:26.274Z,99676.53
2022-12-25T18:26:28.766Z,99676.22
2022-12-25T18:29:30.344Z,99673.44
2022-12-25T18:32:32.129Z,99672.63
2022-12-25T18:35:34.429Z,99677.03
2022-12-25T18:38:35.924Z,99678.41
2022-12-25T18:41:57.398Z,99684.16
2022-12-25T18:44:58.903Z,99683.84
2022-12-25T18:48:03.152Z,99683.69
2022-12-25T18:51:08.425Z,99660.53
2022-12-25T18:54:09.982Z,99675.13
2022-12-25T18:57:11.471Z,99678.56
2022-12-25T19:00:13.063Z,99670.06
2022-12-25T19:03:14.632Z,99674.97
2022-12-25T19:06:22.713Z,99680.88
2022-12-25T19:09:24.345Z,99674.63
2022-12-25T19:12:26.554Z,99687.25
2022-12-25T19:15:27.982Z,99687.44
2022-12-25T19:18:29.620Z,99690.56
2022-12-25T19:21:31.150Z,99690.38
2022-12-25T19:24:32.729Z,99676.94
2022-12-25T19:27:34.482Z,99682.69
2022-12-25T19:30:37.911Z,99679.88
2022-12-25T19:33:42.085Z,99672.66
2022-12-25T19:36:43.668Z,99674.13
2022-12-25T19:39:47.934Z,99663.63
2022-12-25T19:42:49.531Z,99666.44
2022-12-25T19:45:51.125Z,99650.69
2022-12-25T19:48:53.359Z,99652.97
2022-12-25T19:51:55.464Z,99663.81
2022-12-25T19:54:56.966Z,99665.44
2022-12-25T19:57:59.086Z,99668.69
2022-12-25T20:01:05.481Z,99663.06
2022-12-25T20:04:09.627Z,99660.78
2022-12-25T20:07:11.201Z,99666.69
2022-12-25T20:10:12.706Z,99678.22
2022-12-25T20:13:14.188Z,99679.53
2022-12-25T20:16:15.940Z,99686.78
2022-12-25T20:19:18.740Z,99686.13
2022-12-25T20:22:20.667Z,99698.94
2022-12-25T20:25:22.137Z,99707.16
2022-12-25T20:28:23.638Z,99693.69
2022-12-25T20:31:30.753Z,99694.34
2022-12-25T20:34:32.264Z,99697.47
2022-12-25T20:37:33.841Z,99692.38
2022-12-25T20:41:00.009Z,99698.91
2022-12-25T20:43:57.792Z,99709.91
2022-12-25T20:47:01.022Z,99700.91
2022-12-25T20:50:02.549Z,99705.13
2022-12-25T20:53:05.144Z,99702.22
2022-12-25T20:56:09.352Z,99705.78
2022-12-25T20:59:12.183Z,99712.03
2022-12-25T21:02:35.731Z,99701.53
2022-12-25T21:05:49.454Z,99705.28
2022-12-25T21:08:50.978Z,99705.75
2022-12-25T21:11:52.478Z,99700.84
2022-12-25T21:14:53.859Z,99714.44
2022-12-25T21:17:55.429Z,99708.06
2022-12-25T21:20:58.275Z,99712.75
2022-12-25T21:23:59.776Z,99711.75
2022-12-25T21:27:02.393Z,99705.53
2022-12-25T21:30:15.160Z,99711.44
2022-12-25T21:33:35.857Z,99717.00
2022-12-25T21:36:37.947Z,99705.06
2022-12-25T21:39:39.528Z,99709.16
2022-12-25T21:42:41.144Z,99712.75
2022-12-25T21:45:42.663Z,99725.31
2022-12-25T21:48:44.207Z,99716.13
2022-12-25T21:52:04.385Z,99726.41
2022-12-25T21:55:06.127Z,99722.06
2022-12-25T21:58:07.581Z,99722.56
2022-12-25T22:01:09.689Z,99727.03
2022-12-25T22:04:12.797Z,99734.41
2022-12-25T22:07:17.214Z,99733.59
2022-12-25T22:10:18.722Z,99737.19
2022-12-25T22:13:38.613Z,99742.72
2022-12-25T22:16:58.769Z,99747.06
2022-12-25T22:20:00.249Z,99754.28
2022-12-25T22:23:01.994Z,99766.78
2022-12-25T22:26:04.933Z,99762.09
2022-12-25T22:29:06.395Z,99762.03
2022-12-25T22:32:09.158Z,99760.72
2022-12-25T22:35:12.264Z,99764.56
2022-12-25T22:38:13.956Z,99763.91
2022-12-25T22:41:15.471Z,99766.25
2022-12-25T22:44:17.985Z,99768.78
2022-12-25T22:47:20.073Z,99766.78
2022-12-25T22:50:21.542Z,99776.59
2022-12-25T22:53:23.147Z,99779.09
2022-12-25T22:56:24.667Z,99777.97
2022-12-25T22:59:26.268Z,99791.13
2022-12-25T23:02:27.962Z,99796.88
2022-12-25T23:05:29.641Z,99802.78
2022-12-25T23:08:31.231Z,99792.41
2022-12-25T23:11:33.274Z,99801.09
2022-12-25T23:14:40.727Z,99800.78
2022-12-25T23:18:00.867Z,99799.63
2022-12-25T23:21:20.711Z,99818.13
2022-12-25T23:24:40.949Z,99811.41
2022-12-25T23:27:44.044Z,99814.53
2022-12-25T23:30:45.555Z,99821.25
2022-12-25T23:33:47.951Z,99834.66
2022-12-25T23:36:49.540Z,99831.63
2022-12-25T23:39:51.054Z,99829.81
2022-12-25T23:42:52.506Z,99833.91
2022-12-25T23:45:53.965Z,99829.38
2022-12-25T23:48:55.403Z,99830.63
2022-12-25T23:51:56.883Z,99831.47
2022-12-25T23:54:58.282Z,99818.50
2022-12-25T23:57:59.699Z,99821.06
